Terminal Aerodrome Forecast
Issued by NWS

Home | Current Version | Previous Version | Text Only | Print | Product List | Glossary On
Versions: 1 2 3 4 5 6 7 8 9 10 11 12 13 14 15
642
FTUS44 KBMX 231727
TAFMGM
TAF
KMGM 231727Z 2318/2418 12010G15KT P6SM SCT050
     FM240000 10009KT P6SM BKN040
     FM241000 01008KT P6SM BKN025
     FM241400 12011KT P6SM SCT040=

USA.gov is the U.S. government's official web portal to all federal, state and local government web resources and services.